sensor_id;sensor_type;location;lat;lon;timestamp;pressure;altitude;pressure_sealevel;temperature;humidity
55540;BME280;41384;51.418;7.286;2023-02-12T00:01:28;101997.34;;;7.26;100.00
55540;BME280;41384;51.418;7.286;2023-02-12T00:03:53;101992.09;;;7.26;100.00
55540;BME280;41384;51.418;7.286;2023-02-12T00:06:19;102003.19;;;7.30;100.00
55540;BME280;41384;51.418;7.286;2023-02-12T00:08:51;102002.75;;;7.25;100.00
55540;BME280;41384;51.418;7.286;2023-02-12T00:11:19;101990.16;;;7.28;100.00
55540;BME280;41384;51.418;7.286;2023-02-12T00:13:45;102000.66;;;7.28;100.00
55540;BME280;41384;51.418;7.286;2023-02-12T00:16:14;101986.81;;;7.26;100.00
55540;BME280;41384;51.418;7.286;2023-02-12T00:18:40;101984.91;;;7.28;100.00
55540;BME280;41384;51.418;7.286;2023-02-12T00:21:05;101982.28;;;7.28;100.00
55540;BME280;41384;51.418;7.286;2023-02-12T00:23:33;101982.00;;;7.32;100.00
55540;BME280;41384;51.418;7.286;2023-02-12T00:25:58;101985.75;;;7.29;100.00
55540;BME280;41384;51.418;7.286;2023-02-12T00:28:24;101983.13;;;7.29;100.00
55540;BME280;41384;51.418;7.286;2023-02-12T00:30:49;101987.28;;;7.32;100.00
55540;BME280;41384;51.418;7.286;2023-02-12T00:33:15;101988.94;;;7.33;100.00
55540;BME280;41384;51.418;7.286;2023-02-12T00:35:40;101986.56;;;7.29;100.00
55540;BME280;41384;51.418;7.286;2023-02-12T00:38:05;101986.56;;;7.29;100.00
55540;BME280;41384;51.418;7.286;2023-02-12T00:40:30;101991.69;;;7.31;100.00
55540;BME280;41384;51.418;7.286;2023-02-12T00:42:56;101992.78;;;7.28;100.00
55540;BME280;41384;51.418;7.286;2023-02-12T00:45:21;101993.22;;;7.34;100.00
55540;BME280;41384;51.418;7.286;2023-02-12T00:47:46;101989.44;;;7.26;100.00
55540;BME280;41384;51.418;7.286;2023-02-12T00:50:11;101982.28;;;7.28;100.00
55540;BME280;41384;51.418;7.286;2023-02-12T00:52:37;101984.91;;;7.28;100.00
55540;BME280;41384;51.418;7.286;2023-02-12T00:55:03;101988.63;;;7.26;100.00
55540;BME280;41384;51.418;7.286;2023-02-12T00:57:28;101991.09;;;7.18;100.00
55540;BME280;41384;51.418;7.286;2023-02-12T00:59:54;101992.50;;;7.22;100.00
55540;BME280;41384;51.418;7.286;2023-02-12T01:02:19;101982.41;;;7.27;100.00
55540;BME280;41384;51.418;7.286;2023-02-12T01:04:44;101985.31;;;7.24;100.00
55540;BME280;41384;51.418;7.286;2023-02-12T01:07:09;101990.41;;;7.25;100.00
55540;BME280;41384;51.418;7.286;2023-02-12T01:09:35;101995.81;;;7.24;100.00
55540;BME280;41384;51.418;7.286;2023-02-12T01:12:01;101987.94;;;7.24;100.00
55540;BME280;41384;51.418;7.286;2023-02-12T01:14:26;101988.06;;;7.22;100.00
55540;BME280;41384;51.418;7.286;2023-02-12T01:16:51;101982.69;;;7.24;100.00
55540;BME280;41384;51.418;7.286;2023-02-12T01:19:16;101985.50;;;7.32;100.00
55540;BME280;41384;51.418;7.286;2023-02-12T01:21:43;101984.78;;;7.30;100.00
55540;BME280;41384;51.418;7.286;2023-02-12T01:24:09;101985.06;;;7.27;100.00
55540;BME280;41384;51.418;7.286;2023-02-12T01:26:34;101986.00;;;7.26;100.00
55540;BME280;41384;51.418;7.286;2023-02-12T01:29:03;101988.22;;;7.30;100.00
55540;BME280;41384;51.418;7.286;2023-02-12T01:31:31;101982.28;;;7.28;100.00
55540;BME280;41384;51.418;7.286;2023-02-12T01:33:58;101983.69;;;7.33;100.00
55540;BME280;41384;51.418;7.286;2023-02-12T01:36:26;101987.16;;;7.33;100.00
55540;BME280;41384;51.418;7.286;2023-02-12T01:38:51;101982.97;;;7.30;100.00
55540;BME280;41384;51.418;7.286;2023-02-12T01:41:20;101981.19;;;7.31;100.00
55540;BME280;41384;51.418;7.286;2023-02-12T01:44:04;101983.50;;;7.24;100.00
55540;BME280;41384;51.418;7.286;2023-02-12T01:46:30;101983.25;;;7.27;100.00
55540;BME280;41384;51.418;7.286;2023-02-12T01:48:55;101982.53;;;7.25;100.00
55540;BME280;41384;51.418;7.286;2023-02-12T01:51:22;101975.63;;;7.24;100.00
55540;BME280;41384;51.418;7.286;2023-02-12T01:53:51;101973.44;;;7.29;100.00
55540;BME280;41384;51.418;7.286;2023-02-12T01:56:17;101964.59;;;7.30;100.00
55540;BME280;41384;51.418;7.286;2023-02-12T01:58:44;101970.94;;;7.28;100.00
55540;BME280;41384;51.418;7.286;2023-02-12T02:01:12;101966.78;;;7.25;100.00
55540;BME280;41384;51.418;7.286;2023-02-12T02:03:39;101969.13;;;7.28;100.00
55540;BME280;41384;51.418;7.286;2023-02-12T02:06:13;101972.19;;;7.34;100.00
55540;BME280;41384;51.418;7.286;2023-02-12T02:08:40;101972.34;;;7.32;100.00
55540;BME280;41384;51.418;7.286;2023-02-12T02:11:05;101976.22;;;7.28;100.00
55540;BME280;41384;51.418;7.286;2023-02-12T02:13:51;101978.25;;;7.24;100.00
55540;BME280;41384;51.418;7.286;2023-02-12T02:16:40;101980.63;;;7.27;100.00
55540;BME280;41384;51.418;7.286;2023-02-12T02:22:11;101971.31;;;7.23;100.00
55540;BME280;41384;51.418;7.286;2023-02-12T02:27:42;101959.16;;;7.22;100.00
55540;BME280;41384;51.418;7.286;2023-02-12T02:30:33;101959.59;;;7.27;100.00
55540;BME280;41384;51.418;7.286;2023-02-12T02:33:23;101958.09;;;7.25;100.00
55540;BME280;41384;51.418;7.286;2023-02-12T02:41:04;101949.34;;;7.24;100.00
55540;BME280;41384;51.418;7.286;2023-02-12T02:43:34;101948.53;;;7.24;100.00
55540;BME280;41384;51.418;7.286;2023-02-12T02:46:19;101951.03;;;7.25;100.00
55540;BME280;41384;51.418;7.286;2023-02-12T02:48:55;101949.25;;;7.26;100.00
55540;BME280;41384;51.418;7.286;2023-02-12T02:51:33;101951.16;;;7.24;100.00
55540;BME280;41384;51.418;7.286;2023-02-12T02:54:08;101953.78;;;7.24;100.00
55540;BME280;41384;51.418;7.286;2023-02-12T02:56:38;101950.75;;;7.28;100.00
55540;BME280;41384;51.418;7.286;2023-02-12T02:59:09;101941.22;;;7.27;100.00
55540;BME280;41384;51.418;7.286;2023-02-12T03:01:43;101948.13;;;7.28;100.00
55540;BME280;41384;51.418;7.286;2023-02-12T03:04:18;101948.13;;;7.28;100.00
55540;BME280;41384;51.418;7.286;2023-02-12T03:06:57;101953.13;;;7.32;100.00
55540;BME280;41384;51.418;7.286;2023-02-12T03:09:49;101952.41;;;7.29;100.00
55540;BME280;41384;51.418;7.286;2023-02-12T03:12:26;101957.13;;;7.26;100.00
55540;BME280;41384;51.418;7.286;2023-02-12T03:15:07;101948.38;;;7.25;100.00
55540;BME280;41384;51.418;7.286;2023-02-12T03:17:38;101961.84;;;7.32;100.00
55540;BME280;41384;51.418;7.286;2023-02-12T03:20:18;101961.25;;;7.28;100.00
55540;BME280;41384;51.418;7.286;2023-02-12T03:23:08;101953.66;;;7.25;100.00
55540;BME280;41384;51.418;7.286;2023-02-12T03:25:45;101949.78;;;7.29;100.00
55540;BME280;41384;51.418;7.286;2023-02-12T03:28:17;101942.16;;;7.26;100.00
55540;BME280;41384;51.418;7.286;2023-02-12T03:33:24;101937.06;;;7.25;100.00
55540;BME280;41384;51.418;7.286;2023-02-12T03:36:00;101956.53;;;7.22;100.00
55540;BME280;41384;51.418;7.286;2023-02-12T03:40:59;101957.13;;;7.26;100.00
55540;BME280;41384;51.418;7.286;2023-02-12T03:43:32;101950.47;;;7.22;100.00
55540;BME280;41384;51.418;7.286;2023-02-12T03:46:16;101954.88;;;7.21;100.00
55540;BME280;41384;51.418;7.286;2023-02-12T03:48:58;101964.28;;;7.24;100.00
55540;BME280;41384;51.418;7.286;2023-02-12T03:51:34;101954.88;;;7.21;100.00
55540;BME280;41384;51.418;7.286;2023-02-12T03:54:01;101954.06;;;7.21;100.00
55540;BME280;41384;51.418;7.286;2023-02-12T03:56:32;101959.03;;;7.24;100.00
55540;BME280;41384;51.418;7.286;2023-02-12T03:58:59;101955.00;;;7.20;100.00
55540;BME280;41384;51.418;7.286;2023-02-12T04:01:25;101954.06;;;7.21;100.00
55540;BME280;41384;51.418;7.286;2023-02-12T04:03:51;101960.72;;;7.25;100.00
55540;BME280;41384;51.418;7.286;2023-02-12T04:06:25;101961.09;;;7.20;100.00
55540;BME280;41384;51.418;7.286;2023-02-12T04:08:51;101961.94;;;7.21;100.00
55540;BME280;41384;51.418;7.286;2023-02-12T04:11:27;101966.34;;;7.20;100.00
55540;BME280;41384;51.418;7.286;2023-02-12T04:14:19;101962.56;;;7.13;100.00
55540;BME280;41384;51.418;7.286;2023-02-12T04:17:08;101967.03;;;7.22;100.00
55540;BME280;41384;51.418;7.286;2023-02-12T04:19:45;101967.63;;;7.26;100.00
55540;BME280;41384;51.418;7.286;2023-02-12T04:22:26;101963.88;;;7.28;100.00
55540;BME280;41384;51.418;7.286;2023-02-12T04:30:33;101984.47;;;7.23;100.00
55540;BME280;41384;51.418;7.286;2023-02-12T04:33:02;101980.19;;;7.22;100.00
55540;BME280;41384;51.418;7.286;2023-02-12T04:35:39;101985.44;;;7.22;100.00
55540;BME280;41384;51.418;7.286;2023-02-12T04:40:40;101988.91;;;7.23;100.00
55540;BME280;41384;51.418;7.286;2023-02-12T04:43:06;101991.53;;;7.23;100.00
55540;BME280;41384;51.418;7.286;2023-02-12T04:45:33;101997.47;;;7.25;100.00
55540;BME280;41384;51.418;7.286;2023-02-12T04:47:59;101999.66;;;7.20;100.00
55540;BME280;41384;51.418;7.286;2023-02-12T04:50:25;102000.75;;;7.17;100.00
55540;BME280;41384;51.418;7.286;2023-02-12T04:52:50;102000.94;;;7.25;100.00
55540;BME280;41384;51.418;7.286;2023-02-12T04:55:16;102004.50;;;7.24;100.00
55540;BME280;41384;51.418;7.286;2023-02-12T04:57:41;102003.81;;;7.22;100.00
55540;BME280;41384;51.418;7.286;2023-02-12T05:00:08;102003.00;;;7.22;100.00
55540;BME280;41384;51.418;7.286;2023-02-12T05:02:35;102003.97;;;7.21;100.00
55540;BME280;41384;51.418;7.286;2023-02-12T05:05:01;102010.03;;;7.21;100.00
55540;BME280;41384;51.418;7.286;2023-02-12T05:07:26;102015.97;;;7.23;100.00
55540;BME280;41384;51.418;7.286;2023-02-12T05:09:51;102007.03;;;7.05;100.00
55540;BME280;41384;51.418;7.286;2023-02-12T05:12:17;102007.09;;;7.14;100.00
55540;BME280;41384;51.418;7.286;2023-02-12T05:14:42;102004.22;;;7.18;100.00
55540;BME280;41384;51.418;7.286;2023-02-12T05:17:07;102003.00;;;7.22;100.00
55540;BME280;41384;51.418;7.286;2023-02-12T05:19:32;101999.94;;;7.17;100.00
55540;BME280;41384;51.418;7.286;2023-02-12T05:21:58;102001.59;;;7.18;100.00
55540;BME280;41384;51.418;7.286;2023-02-12T05:24:23;102005.03;;;7.18;100.00
55540;BME280;41384;51.418;7.286;2023-02-12T05:26:50;102010.44;;;7.17;100.00
55540;BME280;41384;51.418;7.286;2023-02-12T05:29:15;102008.06;;;7.13;100.00
55540;BME280;41384;51.418;7.286;2023-02-12T05:31:40;102015.44;;;7.20;100.00
55540;BME280;41384;51.418;7.286;2023-02-12T05:34:09;102020.69;;;7.20;100.00
55540;BME280;41384;51.418;7.286;2023-02-12T05:36:35;102023.41;;;7.18;100.00
55540;BME280;41384;51.418;7.286;2023-02-12T05:39:00;102023.50;;;7.28;100.00
55540;BME280;41384;51.418;7.286;2023-02-12T05:41:26;102019.19;;;7.27;100.00
55540;BME280;41384;51.418;7.286;2023-02-12T05:43:51;102015.97;;;7.23;100.00
55540;BME280;41384;51.418;7.286;2023-02-12T05:46:18;102019.72;;;7.21;100.00
55540;BME280;41384;51.418;7.286;2023-02-12T05:48:44;102022.72;;;7.16;100.00
55540;BME280;41384;51.418;7.286;2023-02-12T05:51:13;102021.75;;;7.17;100.00
55540;BME280;41384;51.418;7.286;2023-02-12T05:53:40;102019.97;;;7.18;100.00
55540;BME280;41384;51.418;7.286;2023-02-12T05:56:23;102023.56;;;7.17;100.00
55540;BME280;41384;51.418;7.286;2023-02-12T05:58:58;102027.84;;;7.18;100.00
55540;BME280;41384;51.418;7.286;2023-02-12T06:01:30;102028.69;;;7.18;100.00
55540;BME280;41384;51.418;7.286;2023-02-12T06:03:55;102016.66;;;7.15;100.00
55540;BME280;41384;51.418;7.286;2023-02-12T06:06:24;102027.28;;;7.14;100.00
55540;BME280;41384;51.418;7.286;2023-02-12T06:08:49;102034.88;;;7.17;100.00
55540;BME280;41384;51.418;7.286;2023-02-12T06:11:16;102023.56;;;7.17;100.00
55540;BME280;41384;51.418;7.286;2023-02-12T06:13:42;102026.19;;;7.17;100.00
55540;BME280;41384;51.418;7.286;2023-02-12T06:16:16;102021.75;;;7.17;100.00
55540;BME280;41384;51.418;7.286;2023-02-12T06:18:41;102022.59;;;7.18;100.00
55540;BME280;41384;51.418;7.286;2023-02-12T06:21:06;102027.00;;;7.17;100.00
55540;BME280;41384;51.418;7.286;2023-02-12T06:23:32;102020.94;;;7.17;100.00
55540;BME280;41384;51.418;7.286;2023-02-12T06:25:57;102026.19;;;7.17;100.00
55540;BME280;41384;51.418;7.286;2023-02-12T06:28:22;102024.81;;;7.22;100.00
55540;BME280;41384;51.418;7.286;2023-02-12T06:30:48;102029.91;;;7.14;100.00
55540;BME280;41384;51.418;7.286;2023-02-12T06:33:13;102029.78;;;7.15;100.00
55540;BME280;41384;51.418;7.286;2023-02-12T06:35:38;102028.94;;;7.15;100.00
55540;BME280;41384;51.418;7.286;2023-02-12T06:38:04;102033.38;;;7.14;100.00
55540;BME280;41384;51.418;7.286;2023-02-12T06:40:29;102036.56;;;7.18;100.00
55540;BME280;41384;51.418;7.286;2023-02-12T06:42:54;102034.63;;;7.20;100.00
55540;BME280;41384;51.418;7.286;2023-02-12T06:45:20;102035.84;;;7.16;100.00
55540;BME280;41384;51.418;7.286;2023-02-12T06:47:45;102038.38;;;7.18;100.00
55540;BME280;41384;51.418;7.286;2023-02-12T06:50:11;102034.78;;;7.19;100.00
55540;BME280;41384;51.418;7.286;2023-02-12T06:52:36;102034.44;;;7.12;100.00
55540;BME280;41384;51.418;7.286;2023-02-12T06:55:01;102037.78;;;7.14;100.00
55540;BME280;41384;51.418;7.286;2023-02-12T06:57:27;102045.28;;;7.19;100.00
55540;BME280;41384;51.418;7.286;2023-02-12T06:59:53;102042.66;;;7.19;100.00
55540;BME280;41384;51.418;7.286;2023-02-12T07:02:18;102047.75;;;7.20;100.00
55540;BME280;41384;51.418;7.286;2023-02-12T07:04:44;102049.16;;;7.24;100.00
55540;BME280;41384;51.418;7.286;2023-02-12T07:07:09;102045.59;;;7.25;100.00
55540;BME280;41384;51.418;7.286;2023-02-12T07:09:34;102057.75;;;7.26;100.00
55540;BME280;41384;51.418;7.286;2023-02-12T07:11:59;102051.78;;;7.24;100.00
55540;BME280;41384;51.418;7.286;2023-02-12T07:14:25;102056.22;;;7.24;100.00
55540;BME280;41384;51.418;7.286;2023-02-12T07:16:53;102055.13;;;7.26;100.00
55540;BME280;41384;51.418;7.286;2023-02-12T07:19:18;102054.16;;;7.27;100.00
55540;BME280;41384;51.418;7.286;2023-02-12T07:21:43;102066.66;;;7.35;100.00
55540;BME280;41384;51.418;7.286;2023-02-12T07:24:10;102068.59;;;7.33;100.00
55540;BME280;41384;51.418;7.286;2023-02-12T07:26:39;102060.97;;;7.30;100.00
55540;BME280;41384;51.418;7.286;2023-02-12T07:29:04;102061.09;;;7.28;100.00
55540;BME280;41384;51.418;7.286;2023-02-12T07:31:29;102063.59;;;7.30;100.00
55540;BME280;41384;51.418;7.286;2023-02-12T07:33:57;102065.38;;;7.29;100.00
55540;BME280;41384;51.418;7.286;2023-02-12T07:36:23;102073.97;;;7.32;100.00
55540;BME280;41384;51.418;7.286;2023-02-12T07:38:49;102078.00;;;7.36;100.00
55540;BME280;41384;51.418;7.286;2023-02-12T07:41:18;102071.06;;;7.35;100.00
55540;BME280;41384;51.418;7.286;2023-02-12T07:43:45;102076.06;;;7.38;100.00
55540;BME280;41384;51.418;7.286;2023-02-12T07:46:14;102081.31;;;7.38;100.00
55540;BME280;41384;51.418;7.286;2023-02-12T07:48:41;102084.91;;;7.37;100.00
55540;BME280;41384;51.418;7.286;2023-02-12T07:51:08;102095.88;;;7.42;100.00
55540;BME280;41384;51.418;7.286;2023-02-12T07:53:34;102082.03;;;7.40;100.00
55540;BME280;41384;51.418;7.286;2023-02-12T07:56:20;102074.41;;;7.37;100.00
55540;BME280;41384;51.418;7.286;2023-02-12T07:58:48;102078.78;;;7.48;100.00
55540;BME280;41384;51.418;7.286;2023-02-12T08:03:44;102090.56;;;7.53;100.00
55540;BME280;41384;51.418;7.286;2023-02-12T08:06:13;102088.91;;;7.52;100.00
55540;BME280;41384;51.418;7.286;2023-02-12T08:08:38;102091.75;;;7.49;100.00
55540;BME280;41384;51.418;7.286;2023-02-12T08:11:05;102087.69;;;7.56;100.00
55540;BME280;41384;51.418;7.286;2023-02-12T08:13:31;102086.72;;;7.57;100.00
55540;BME280;41384;51.418;7.286;2023-02-12T08:16:05;102087.53;;;7.58;100.00
55540;BME280;41384;51.418;7.286;2023-02-12T08:18:31;102098.38;;;7.65;100.00
55540;BME280;41384;51.418;7.286;2023-02-12T08:21:04;102098.22;;;7.66;100.00
55540;BME280;41384;51.418;7.286;2023-02-12T08:23:31;102104.59;;;7.64;100.00
55540;BME280;41384;51.418;7.286;2023-02-12T08:28:34;102102.41;;;7.69;100.00
55540;BME280;41384;51.418;7.286;2023-02-12T08:31:01;102102.97;;;7.72;100.00
55540;BME280;41384;51.418;7.286;2023-02-12T08:33:27;102109.44;;;7.68;100.00
55540;BME280;41384;51.418;7.286;2023-02-12T08:36:09;102105.59;;;7.72;100.00
55540;BME280;41384;51.418;7.286;2023-02-12T08:38:35;102117.16;;;7.60;100.00
55540;BME280;41384;51.418;7.286;2023-02-12T08:41:05;102115.03;;;7.75;100.00
55540;BME280;41384;51.418;7.286;2023-02-12T08:43:31;102113.91;;;7.78;100.00
55540;BME280;41384;51.418;7.286;2023-02-12T08:46:04;102105.66;;;7.82;100.00
55540;BME280;41384;51.418;7.286;2023-02-12T08:48:29;102113.78;;;7.79;100.00
55540;BME280;41384;51.418;7.286;2023-02-12T08:50:54;102117.94;;;7.82;100.00
55540;BME280;41384;51.418;7.286;2023-02-12T08:53:19;102119.75;;;7.81;100.00
55540;BME280;41384;51.418;7.286;2023-02-12T08:55:48;102124.75;;;7.84;100.00
55540;BME280;41384;51.418;7.286;2023-02-12T08:58:14;102117.56;;;7.86;100.00
55540;BME280;41384;51.418;7.286;2023-02-12T09:00:39;102125.31;;;7.88;100.00
55540;BME280;41384;51.418;7.286;2023-02-12T09:03:05;102126.97;;;7.89;100.00
55540;BME280;41384;51.418;7.286;2023-02-12T09:05:30;102122.13;;;7.84;100.00
55540;BME280;41384;51.418;7.286;2023-02-12T09:07:55;102120.63;;;7.92;100.00
55540;BME280;41384;51.418;7.286;2023-02-12T09:10:20;102125.38;;;7.98;100.00
55540;BME280;41384;51.418;7.286;2023-02-12T09:12:46;102125.63;;;7.95;100.00
55540;BME280;41384;51.418;7.286;2023-02-12T09:15:12;102128.63;;;7.90;100.00
55540;BME280;41384;51.418;7.286;2023-02-12T09:17:37;102129.50;;;7.91;100.00
55540;BME280;41384;51.418;7.286;2023-02-12T09:20:05;102129.66;;;7.99;100.00
55540;BME280;41384;51.418;7.286;2023-02-12T09:22:31;102135.31;;;7.94;100.00
55540;BME280;41384;51.418;7.286;2023-02-12T09:24:56;102122.03;;;7.96;100.00
55540;BME280;41384;51.418;7.286;2023-02-12T09:27:22;102138.03;;;7.83;100.00
55540;BME280;41384;51.418;7.286;2023-02-12T09:29:47;102125.81;;;8.03;100.00
55540;BME280;41384;51.418;7.286;2023-02-12T09:32:12;102139.63;;;7.95;100.00
55540;BME280;41384;51.418;7.286;2023-02-12T09:34:37;102128.56;;;8.01;100.00
55540;BME280;41384;51.418;7.286;2023-02-12T09:37:03;102129.28;;;8.03;100.00
55540;BME280;41384;51.418;7.286;2023-02-12T09:39:28;102125.97;;;8.11;100.00
55540;BME280;41384;51.418;7.286;2023-02-12T09:42:10;102131.50;;;8.08;100.00
55540;BME280;41384;51.418;7.286;2023-02-12T09:45:09;102131.91;;;8.03;100.00
55540;BME280;41384;51.418;7.286;2023-02-12T09:47:47;102134.03;;;7.88;100.00
55540;BME280;41384;51.418;7.286;2023-02-12T09:52:47;102140.63;;;8.04;100.00
55540;BME280;41384;51.418;7.286;2023-02-12T09:55:14;102141.63;;;8.13;100.00
55540;BME280;41384;51.418;7.286;2023-02-12T09:57:40;102144.28;;;8.23;100.00
55540;BME280;41384;51.418;7.286;2023-02-12T10:00:14;102144.38;;;8.11;100.00
55540;BME280;41384;51.418;7.286;2023-02-12T10:02:40;102139.00;;;8.13;100.00
55540;BME280;41384;51.418;7.286;2023-02-12T10:05:17;102138.47;;;8.19;100.00
55540;BME280;41384;51.418;7.286;2023-02-12T10:13:28;102144.75;;;7.97;100.00
55540;BME280;41384;51.418;7.286;2023-02-12T10:26:49;102142.31;;;7.84;100.00
55540;BME280;41384;51.418;7.286;2023-02-12T10:29:23;102141.09;;;7.88;100.00
55540;BME280;41384;51.418;7.286;2023-02-12T10:31:56;102139.81;;;7.82;100.00
55540;BME280;41384;51.418;7.286;2023-02-12T10:34:29;102143.97;;;7.85;100.00
55540;BME280;41384;51.418;7.286;2023-02-12T10:37:10;102131.81;;;8.15;100.00
55540;BME280;41384;51.418;7.286;2023-02-12T10:39:41;102133.78;;;7.92;100.00
55540;BME280;41384;51.418;7.286;2023-02-12T10:42:15;102127.91;;;8.09;100.00
55540;BME280;41384;51.418;7.286;2023-02-12T10:44:42;102124.63;;;8.17;100.00
55540;BME280;41384;51.418;7.286;2023-02-12T10:47:16;102132.78;;;8.24;100.00
55540;BME280;41384;51.418;7.286;2023-02-12T10:49:43;102132.34;;;8.09;100.00
55540;BME280;41384;51.418;7.286;2023-02-12T10:52:14;102131.53;;;8.18;100.00
55540;BME280;41384;51.418;7.286;2023-02-12T10:54:46;102128.34;;;8.14;100.00
55540;BME280;41384;51.418;7.286;2023-02-12T10:57:17;102127.34;;;8.06;100.00
55540;BME280;41384;51.418;7.286;2023-02-12T10:59:45;102124.56;;;8.07;100.00
55540;BME280;41384;51.418;7.286;2023-02-12T11:02:23;102128.13;;;7.96;100.00
55540;BME280;41384;51.418;7.286;2023-02-12T11:04:50;102119.91;;;8.21;100.00
55540;BME280;41384;51.418;7.286;2023-02-12T11:07:16;102118.50;;;8.16;100.00
55540;BME280;41384;51.418;7.286;2023-02-12T11:09:44;102121.03;;;8.18;100.00
55540;BME280;41384;51.418;7.286;2023-02-12T11:12:32;102124.78;;;8.35;100.00
55540;BME280;41384;51.418;7.286;2023-02-12T11:15:04;102123.00;;;8.36;100.00
55540;BME280;41384;51.418;7.286;2023-02-12T11:17:40;102119.13;;;8.40;100.00
55540;BME280;41384;51.418;7.286;2023-02-12T11:22:58;102116.28;;;8.12;100.00
55540;BME280;41384;51.418;7.286;2023-02-12T11:25:25;102114.91;;;8.08;100.00
55540;BME280;41384;51.418;7.286;2023-02-12T11:27:59;102111.34;;;8.28;100.00
55540;BME280;41384;51.418;7.286;2023-02-12T11:30:25;102097.50;;;8.36;100.00
55540;BME280;41384;51.418;7.286;2023-02-12T11:32:51;102102.63;;;8.28;100.00
55540;BME280;41384;51.418;7.286;2023-02-12T11:35:22;102099.59;;;8.32;100.00
55540;BME280;41384;51.418;7.286;2023-02-12T11:37:55;102097.97;;;8.41;100.00
55540;BME280;41384;51.418;7.286;2023-02-12T11:40:26;102091.59;;;8.44;100.00
55540;BME280;41384;51.418;7.286;2023-02-12T11:42:57;102094.22;;;8.44;100.00
55540;BME280;41384;51.418;7.286;2023-02-12T11:45:29;102095.56;;;8.28;100.00
55540;BME280;41384;51.418;7.286;2023-02-12T11:47:55;102097.38;;;8.38;100.00
55540;BME280;41384;51.418;7.286;2023-02-12T11:50:25;102096.69;;;8.36;100.00
55540;BME280;41384;51.418;7.286;2023-02-12T11:52:53;102101.38;;;8.22;100.00
55540;BME280;41384;51.418;7.286;2023-02-12T11:55:26;102098.75;;;8.32;100.00
55540;BME280;41384;51.418;7.286;2023-02-12T11:58:14;102092.13;;;8.38;100.00
55540;BME280;41384;51.418;7.286;2023-02-12T12:00:45;102094.59;;;8.39;100.00
55540;BME280;41384;51.418;7.286;2023-02-12T12:06:47;102083.81;;;8.32;100.00
55540;BME280;41384;51.418;7.286;2023-02-12T12:09:42;102089.63;;;8.36;100.00
55540;BME280;41384;51.418;7.286;2023-02-12T12:12:22;102076.72;;;8.33;100.00
55540;BME280;41384;51.418;7.286;2023-02-12T12:15:06;102074.38;;;8.30;100.00
55540;BME280;41384;51.418;7.286;2023-02-12T12:21:02;102066.47;;;8.30;100.00
55540;BME280;41384;51.418;7.286;2023-02-12T12:23:34;102069.25;;;8.38;100.00
55540;BME280;41384;51.418;7.286;2023-02-12T12:26:09;102072.19;;;8.45;100.00
55540;BME280;41384;51.418;7.286;2023-02-12T12:28:45;102057.91;;;8.38;100.00
55540;BME280;41384;51.418;7.286;2023-02-12T12:31:29;102057.63;;;8.31;100.00
55540;BME280;41384;51.418;7.286;2023-02-12T12:34:03;102049.06;;;8.39;100.00
55540;BME280;41384;51.418;7.286;2023-02-12T12:39:34;102049.75;;;8.41;100.00
55540;BME280;41384;51.418;7.286;2023-02-12T12:45:02;102051.41;;;8.42;100.00
55540;BME280;41384;51.418;7.286;2023-02-12T12:47:54;102038.09;;;8.33;100.00
55540;BME280;41384;51.418;7.286;2023-02-12T12:50:42;102044.59;;;8.39;100.00
55540;BME280;41384;51.418;7.286;2023-02-12T12:56:18;102039.09;;;8.42;100.00
55540;BME280;41384;51.418;7.286;2023-02-12T13:12:55;102022.84;;;8.37;100.00
55540;BME280;41384;51.418;7.286;2023-02-12T13:15:34;102024.28;;;8.41;100.00
55540;BME280;41384;51.418;7.286;2023-02-12T13:20:56;102014.97;;;8.47;100.00
55540;BME280;41384;51.418;7.286;2023-02-12T13:24:10;102012.50;;;8.45;100.00
55540;BME280;41384;51.418;7.286;2023-02-12T13:26:52;102010.66;;;8.36;100.00
55540;BME280;41384;51.418;7.286;2023-02-12T13:29:25;102009.88;;;8.45;100.00
55540;BME280;41384;51.418;7.286;2023-02-12T13:32:03;102008.09;;;8.56;100.00
55540;BME280;41384;51.418;7.286;2023-02-12T13:34:31;102002.69;;;8.57;100.00
55540;BME280;41384;51.418;7.286;2023-02-12T13:37:03;101998.66;;;8.53;100.00
55540;BME280;41384;51.418;7.286;2023-02-12T13:39:36;102004.22;;;8.60;100.00
55540;BME280;41384;51.418;7.286;2023-02-12T13:42:42;101998.53;;;8.65;100.00
55540;BME280;41384;51.418;7.286;2023-02-12T13:45:23;102000.06;;;8.67;100.00
55540;BME280;41384;51.418;7.286;2023-02-12T13:48:15;102000.59;;;8.81;100.00
55540;BME280;41384;51.418;7.286;2023-02-12T13:50:59;101995.19;;;8.63;100.00
55540;BME280;41384;51.418;7.286;2023-02-12T13:56:39;101999.94;;;8.59;100.00
55540;BME280;41384;51.418;7.286;2023-02-12T14:01:57;101998.53;;;8.55;100.00
55540;BME280;41384;51.418;7.286;2023-02-12T14:04:29;101993.13;;;8.56;100.00
55540;BME280;41384;51.418;7.286;2023-02-12T14:07:06;101988.00;;;8.55;100.00
55540;BME280;41384;51.418;7.286;2023-02-12T14:14:50;101992.44;;;8.54;100.00
55540;BME280;41384;51.418;7.286;2023-02-12T14:20:20;101998.94;;;8.50;100.00
55540;BME280;41384;51.418;7.286;2023-02-12T14:27:53;102001.44;;;8.52;100.00
55540;BME280;41384;51.418;7.286;2023-02-12T14:30:39;102000.84;;;8.48;100.00
55540;BME280;41384;51.418;7.286;2023-02-12T14:35:40;102004.59;;;8.45;100.00
55540;BME280;41384;51.418;7.286;2023-02-12T14:40:42;102009.06;;;8.55;100.00
55540;BME280;41384;51.418;7.286;2023-02-12T14:45:51;102010.31;;;8.51;100.00
55540;BME280;41384;51.418;7.286;2023-02-12T14:48:49;102003.63;;;8.46;100.00
55540;BME280;41384;51.418;7.286;2023-02-12T14:51:35;101998.66;;;8.43;100.00
55540;BME280;41384;51.418;7.286;2023-02-12T14:54:03;102001.97;;;8.45;100.00
55540;BME280;41384;51.418;7.286;2023-02-12T14:56:43;102004.72;;;8.44;100.00
55540;BME280;41384;51.418;7.286;2023-02-12T14:59:15;102001.69;;;8.49;100.00